Time;durP1;ratioP1;P1;durP2;ratioP2;P2;SDS_P1;SDS_P2;PMS_P1;PMS_P2;Temp;Humidity;BMP_temperature;BMP_pressure;BME280_temperature;BME280_humidity;BME280_pressure;Samples;Min_cycle;Max_cycle;Signal;HPM_P1;HPM_P2
2023/08/04 00:00:59;;;;;;;1.60;1.50;;;17.40;99.90;;;;;;5079315;28;20741;-68
2023/08/04 00:03:26;;;;;;;1.50;1.40;;;17.50;99.90;;;;;;5081098;28;20185;-57
2023/08/04 00:05:51;;;;;;;2.17;1.60;;;17.60;99.90;;;;;;5079023;28;20209;-58
2023/08/04 00:08:17;;;;;;;1.60;1.50;;;17.50;99.90;;;;;;5077641;28;20244;-65
2023/08/04 00:10:42;;;;;;;1.47;1.37;;;17.60;99.90;;;;;;5078700;28;20234;-61
2023/08/04 00:13:08;;;;;;;3.23;1.60;;;17.60;99.90;;;;;;5060611;28;20213;-62
2023/08/04 00:15:33;;;;;;;2.27;1.20;;;17.60;99.90;;;;;;5065866;28;20186;-65
2023/08/04 00:17:59;;;;;;;3.23;1.43;;;17.60;99.90;;;;;;5081555;28;20968;-56
2023/08/04 00:20:24;;;;;;;2.50;1.50;;;17.60;99.90;;;;;;5080547;28;20222;-56
2023/08/04 00:22:50;;;;;;;1.77;1.30;;;17.60;99.90;;;;;;5078679;28;20189;-56
2023/08/04 00:25:15;;;;;;;1.80;1.70;;;17.60;99.90;;;;;;5080358;28;20212;-59
2023/08/04 00:27:41;;;;;;;1.73;1.60;;;17.60;99.90;;;;;;5078145;28;20882;-57
2023/08/04 00:30:09;;;;;;;1.50;1.43;;;17.60;99.90;;;;;;5080943;28;20634;-59
2023/08/04 00:32:34;;;;;;;1.80;1.70;;;17.60;99.90;;;;;;5078197;28;20227;-60
2023/08/04 00:35:01;;;;;;;1.83;1.73;;;17.70;99.90;;;;;;5081990;28;20306;-60
2023/08/04 00:37:26;;;;;;;4.93;1.70;;;17.70;99.90;;;;;;5079899;28;20235;-60
2023/08/04 00:39:51;;;;;;;1.80;1.70;;;17.60;99.90;;;;;;5081600;28;20243;-59
2023/08/04 00:42:18;;;;;;;1.97;1.23;;;17.70;99.90;;;;;;5079689;28;20679;-61
2023/08/04 00:44:43;;;;;;;2.33;1.63;;;17.60;99.90;;;;;;5079528;28;20269;-62
2023/08/04 00:47:09;;;;;;;2.30;1.70;;;17.60;99.90;;;;;;5081470;28;20277;-62
2023/08/04 00:49:35;;;;;;;2.30;1.77;;;17.60;99.90;;;;;;5079685;28;20272;-61
2023/08/04 00:52:00;;;;;;;1.80;1.70;;;17.70;99.90;;;;;;5081395;28;20286;-62
2023/08/04 00:54:26;;;;;;;2.10;1.97;;;17.60;99.90;;;;;;5084843;28;20292;-61
2023/08/04 00:56:53;;;;;;;6.60;1.97;;;17.50;99.90;;;;;;5069731;28;20194;-62
2023/08/04 00:59:18;;;;;;;1.80;1.70;;;17.40;99.90;;;;;;5070005;28;20247;-63
2023/08/04 01:01:43;;;;;;;2.27;2.00;;;17.50;99.90;;;;;;5081107;28;20201;-63
2023/08/04 01:04:09;;;;;;;2.70;2.30;;;17.40;99.90;;;;;;5079505;28;20214;-62
2023/08/04 01:07:11;;;;;;;6.43;2.23;;;17.30;99.90;;;;;;5081406;28;20197;-61
2023/08/04 01:10:14;;;;;;;2.57;2.30;;;17.40;99.90;;;;;;5079858;28;20287;-60
2023/08/04 01:13:03;;;;;;;5.70;2.17;;;17.50;99.90;;;;;;5073990;28;20204;-57
2023/08/04 01:15:30;;;;;;;2.83;2.20;;;17.50;99.90;;;;;;5073469;28;20258;-58
2023/08/04 01:17:56;;;;;;;2.60;2.27;;;17.30;99.90;;;;;;5079191;28;20873;-58
2023/08/04 01:20:25;;;;;;;4.03;2.63;;;17.20;99.90;;;;;;5081585;28;20201;-58
2023/08/04 01:22:52;;;;;;;4.67;2.40;;;17.30;99.90;;;;;;5077522;28;20773;-58
2023/08/04 01:25:23;;;;;;;2.07;1.97;;;17.40;99.90;;;;;;5073515;28;20175;-58
2023/08/04 01:27:54;;;;;;;2.10;2.00;;;17.30;99.90;;;;;;5073144;28;20209;-62
2023/08/04 01:30:22;;;;;;;3.60;2.63;;;17.30;99.90;;;;;;5081476;28;20240;-59
2023/08/04 01:32:48;;;;;;;3.23;2.37;;;17.40;99.90;;;;;;5079999;28;20224;-57
2023/08/04 01:35:14;;;;;;;4.67;2.20;;;17.50;99.90;;;;;;5081368;28;20181;-59
2023/08/04 01:37:40;;;;;;;5.00;2.33;;;17.50;99.90;;;;;;5079258;28;20189;-59
2023/08/04 01:40:06;;;;;;;2.87;2.20;;;17.50;99.90;;;;;;5081249;28;20189;-59
2023/08/04 01:42:31;;;;;;;2.53;2.33;;;17.50;99.90;;;;;;5077353;28;20202;-57
2023/08/04 01:44:57;;;;;;;2.53;2.23;;;17.50;99.90;;;;;;5066336;28;20192;-58
2023/08/04 01:47:22;;;;;;;3.27;2.93;;;17.50;99.90;;;;;;5080342;28;20203;-57
2023/08/04 01:49:48;;;;;;;2.33;2.10;;;17.60;99.90;;;;;;5067693;28;20265;-57
2023/08/04 01:52:13;;;;;;;3.67;2.50;;;17.60;99.90;;;;;;5082044;28;20205;-58
2023/08/04 01:54:39;;;;;;;6.77;3.57;;;17.60;99.90;;;;;;5084693;28;20566;-58
2023/08/04 01:57:05;;;;;;;3.00;2.23;;;17.60;99.90;;;;;;5084492;28;20695;-57
2023/08/04 01:59:30;;;;;;;2.63;2.43;;;17.60;99.90;;;;;;5082479;28;20205;-57
2023/08/04 02:01:56;;;;;;;5.83;3.03;;;17.60;99.90;;;;;;5084687;28;21005;-57
2023/08/04 02:04:21;;;;;;;6.27;3.00;;;17.70;99.90;;;;;;5082652;28;20701;-58
2023/08/04 02:06:47;;;;;;;9.60;2.80;;;17.60;99.90;;;;;;5084527;28;20194;-57
2023/08/04 02:09:13;;;;;;;6.13;3.23;;;17.60;99.90;;;;;;5075438;28;20206;-58
2023/08/04 02:11:39;;;;;;;5.47;2.67;;;17.60;99.90;;;;;;5084425;28;20269;-60
2023/08/04 02:14:05;;;;;;;6.70;2.73;;;17.60;99.90;;;;;;5082338;28;20358;-59
2023/08/04 02:16:30;;;;;;;4.03;2.93;;;17.70;99.90;;;;;;5078941;28;20275;-59
2023/08/04 02:19:05;;;;;;;3.97;2.93;;;17.60;99.90;;;;;;5081974;28;20244;-56
2023/08/04 02:21:30;;;;;;;4.83;3.20;;;17.50;99.90;;;;;;5061976;28;20555;-56
2023/08/04 02:23:56;;;;;;;4.87;3.00;;;17.40;99.90;;;;;;5081723;28;20308;-56
2023/08/04 02:26:21;;;;;;;2.67;2.43;;;17.40;99.90;;;;;;5083961;28;20727;-59
2023/08/04 02:28:49;;;;;;;6.90;3.50;;;17.50;99.90;;;;;;5082155;28;20204;-56
2023/08/04 02:31:16;;;;;;;6.10;3.30;;;17.40;99.90;;;;;;5074561;28;20238;-58
2023/08/04 02:33:42;;;;;;;3.03;2.73;;;17.50;99.90;;;;;;5054108;28;20244;-58
2023/08/04 02:36:07;;;;;;;8.83;3.23;;;17.70;99.90;;;;;;5079904;28;20209;-59
2023/08/04 02:38:33;;;;;;;3.40;3.10;;;17.60;99.90;;;;;;5080549;28;20237;-61
2023/08/04 02:41:03;;;;;;;4.33;2.93;;;17.50;99.90;;;;;;5083872;28;20193;-61
2023/08/04 02:43:29;;;;;;;7.63;2.87;;;17.60;99.90;;;;;;5081699;28;20284;-61
2023/08/04 02:45:55;;;;;;;4.43;2.83;;;17.70;99.90;;;;;;5081298;28;20217;-61
2023/08/04 02:48:20;;;;;;;7.83;3.10;;;17.70;99.90;;;;;;5081714;28;20240;-61
2023/08/04 02:50:46;;;;;;;6.40;3.43;;;17.60;99.90;;;;;;5083619;28;20190;-61
2023/08/04 02:53:13;;;;;;;5.50;5.07;;;17.50;99.90;;;;;;5081408;28;20293;-60
2023/08/04 02:55:38;;;;;;;5.77;3.33;;;17.40;99.90;;;;;;5083238;28;20186;-59
2023/08/04 02:58:04;;;;;;;4.03;3.27;;;17.40;99.90;;;;;;5081163;28;20204;-59
2023/08/04 03:00:30;;;;;;;5.70;3.60;;;17.40;99.90;;;;;;5083306;28;20190;-59
2023/08/04 03:02:56;;;;;;;4.60;3.10;;;17.40;99.90;;;;;;5071491;28;20202;-59
2023/08/04 03:05:21;;;;;;;8.00;4.00;;;17.30;99.90;;;;;;5082513;28;20866;-59
2023/08/04 03:07:47;;;;;;;6.00;3.97;;;17.30;99.90;;;;;;5081359;28;20280;-57
2023/08/04 03:10:12;;;;;;;7.50;4.10;;;17.30;99.90;;;;;;5083105;28;20224;-58
2023/08/04 03:12:38;;;;;;;5.40;3.30;;;17.30;99.90;;;;;;5080935;28;20286;-58
2023/08/04 03:15:04;;;;;;;3.77;3.23;;;17.40;99.90;;;;;;5083204;28;20868;-58
2023/08/04 03:17:29;;;;;;;5.93;3.77;;;17.40;99.90;;;;;;5081346;28;20215;-58
2023/08/04 03:19:55;;;;;;;3.73;2.93;;;17.50;99.90;;;;;;5048640;28;20178;-58
2023/08/04 03:22:20;;;;;;;7.53;3.93;;;17.50;99.90;;;;;;5081302;28;20280;-58
2023/08/04 03:24:46;;;;;;;5.63;3.50;;;17.30;99.90;;;;;;5067217;28;20248;-58
2023/08/04 03:27:11;;;;;;;5.60;4.33;;;17.30;99.90;;;;;;5081497;28;20231;-64
2023/08/04 03:29:37;;;;;;;4.97;3.57;;;17.20;99.90;;;;;;5082386;28;20188;-58
2023/08/04 03:32:03;;;;;;;11.60;3.70;;;17.10;99.90;;;;;;5078998;28;20209;-63
2023/08/04 03:34:29;;;;;;;5.67;3.33;;;17.00;99.90;;;;;;5076789;28;20237;-54
2023/08/04 03:36:54;;;;;;;8.63;4.17;;;17.10;99.90;;;;;;5078598;28;20213;-55
2023/08/04 03:39:20;;;;;;;6.97;3.83;;;17.00;99.90;;;;;;5076952;28;20273;-58
2023/08/04 03:41:45;;;;;;;7.73;4.27;;;17.00;99.90;;;;;;5068082;28;20202;-58
2023/08/04 03:44:11;;;;;;;8.37;4.00;;;17.10;99.90;;;;;;5065699;28;20186;-59
2023/08/04 03:46:36;;;;;;;4.83;4.17;;;17.20;99.90;;;;;;5066810;28;20650;-58
2023/08/04 03:49:02;;;;;;;6.47;3.70;;;17.20;99.90;;;;;;5079782;28;20196;-60
2023/08/04 03:51:27;;;;;;;13.23;4.37;;;17.20;99.90;;;;;;5082626;28;20185;-60
2023/08/04 03:53:53;;;;;;;9.43;3.97;;;17.10;99.90;;;;;;5080784;28;20213;-60
2023/08/04 03:56:18;;;;;;;5.27;3.80;;;17.00;99.90;;;;;;5082372;28;20193;-60
2023/08/04 03:58:44;;;;;;;5.93;4.13;;;16.80;99.90;;;;;;5080192;28;20212;-60
2023/08/04 04:01:09;;;;;;;7.57;5.20;;;16.80;99.90;;;;;;5082391;28;20204;-60
2023/08/04 04:03:34;;;;;;;8.53;4.83;;;16.80;99.90;;;;;;5061751;28;20300;-58
2023/08/04 04:06:00;;;;;;;8.13;4.67;;;16.80;99.90;;;;;;5081371;28;20197;-58
2023/08/04 04:08:26;;;;;;;9.97;3.93;;;16.90;99.90;;;;;;5080221;28;20284;-58
2023/08/04 04:10:51;;;;;;;5.50;3.80;;;16.90;99.90;;;;;;5081694;28;20257;-58
2023/08/04 04:13:17;;;;;;;9.83;4.30;;;16.80;99.90;;;;;;5052052;28;20225;-58
2023/08/04 04:15:42;;;;;;;6.73;4.60;;;16.80;99.90;;;;;;5081681;28;20224;-58
2023/08/04 04:18:08;;;;;;;7.50;4.33;;;16.80;99.90;;;;;;5061303;28;20249;-58
2023/08/04 04:20:33;;;;;;;8.73;4.50;;;16.70;99.90;;;;;;5081877;28;20730;-58
2023/08/04 04:22:59;;;;;;;8.83;4.77;;;16.60;99.90;;;;;;5079943;28;20206;-58
2023/08/04 04:25:24;;;;;;;6.70;4.77;;;16.60;99.90;;;;;;5081734;28;20288;-58
2023/08/04 04:27:49;;;;;;;10.53;5.20;;;16.60;99.90;;;;;;5061588;28;20746;-58
2023/08/04 04:30:15;;;;;;;8.73;4.63;;;16.70;99.90;;;;;;5063811;28;20203;-58
2023/08/04 04:32:41;;;;;;;8.00;5.10;;;16.60;99.90;;;;;;5079744;28;20224;-58
2023/08/04 04:35:06;;;;;;;6.57;5.17;;;16.50;99.90;;;;;;5067657;28;20269;-58
2023/08/04 04:37:32;;;;;;;9.37;4.83;;;16.50;99.90;;;;;;5060795;28;20751;-59
2023/08/04 04:39:57;;;;;;;8.50;4.77;;;16.70;99.90;;;;;;5081918;28;20251;-58
2023/08/04 04:42:23;;;;;;;5.80;4.63;;;16.70;99.90;;;;;;5079230;28;20246;-59
2023/08/04 04:44:48;;;;;;;9.30;5.17;;;16.70;99.90;;;;;;5077309;28;20247;-59
2023/08/04 04:47:14;;;;;;;11.10;5.33;;;16.80;99.90;;;;;;5079572;28;20205;-60
2023/08/04 04:49:40;;;;;;;11.20;4.87;;;16.80;99.90;;;;;;5063170;28;20246;-60
2023/08/04 04:52:05;;;;;;;10.50;4.70;;;16.80;99.90;;;;;;5078107;28;20228;-60
2023/08/04 04:54:31;;;;;;;4.87;4.23;;;16.80;99.90;;;;;;5068442;28;20764;-60
2023/08/04 04:56:56;;;;;;;7.03;4.20;;;16.80;99.90;;;;;;5078655;28;20273;-60
2023/08/04 04:59:22;;;;;;;7.37;3.90;;;17.00;99.90;;;;;;5081601;28;20189;-58
2023/08/04 05:01:47;;;;;;;10.07;4.53;;;17.00;99.90;;;;;;5079275;28;21060;-59
2023/08/04 05:04:13;;;;;;;12.83;4.10;;;17.10;99.90;;;;;;5063392;28;20235;-59
2023/08/04 05:06:38;;;;;;;6.00;3.43;;;17.00;99.90;;;;;;5082126;28;20342;-56
2023/08/04 05:09:04;;;;;;;7.93;4.47;;;17.10;99.90;;;;;;5079305;28;20244;-62
2023/08/04 05:11:30;;;;;;;5.20;4.03;;;17.10;99.90;;;;;;5062994;28;20321;-59
2023/08/04 05:13:55;;;;;;;8.73;3.77;;;17.00;99.90;;;;;;5079694;28;20249;-63
2023/08/04 05:16:21;;;;;;;9.97;4.87;;;17.00;99.90;;;;;;5081189;28;20186;-56
2023/08/04 05:18:46;;;;;;;6.17;3.90;;;17.00;99.90;;;;;;5064627;28;20201;-57
2023/08/04 05:21:12;;;;;;;9.23;4.87;;;16.90;99.90;;;;;;5085751;28;20201;-56
2023/08/04 05:23:37;;;;;;;6.13;3.77;;;16.90;99.90;;;;;;5083655;28;20662;-64
2023/08/04 05:26:03;;;;;;;10.13;4.20;;;16.90;99.90;;;;;;5085165;28;20566;-57
2023/08/04 05:28:32;;;;;;;5.30;4.03;;;16.80;99.90;;;;;;5083230;28;20212;-58
2023/08/04 05:30:59;;;;;;;9.10;5.10;;;16.80;99.90;;;;;;5084841;28;20671;-58
2023/08/04 05:33:26;;;;;;;7.27;4.60;;;16.70;99.90;;;;;;5083259;28;20223;-58
2023/08/04 05:35:51;;;;;;;6.30;4.13;;;16.80;99.90;;;;;;5085608;28;20197;-57
2023/08/04 05:38:17;;;;;;;6.70;4.57;;;16.80;99.90;;;;;;5078162;28;20788;-62
2023/08/04 05:40:44;;;;;;;8.87;4.10;;;17.00;99.90;;;;;;5084734;28;20693;-57
2023/08/04 05:43:11;;;;;;;3.93;3.53;;;17.10;99.90;;;;;;5078174;28;20241;-61
2023/08/04 05:45:37;;;;;;;5.93;3.83;;;17.20;99.90;;;;;;5082256;28;20197;-62
2023/08/04 05:48:03;;;;;;;6.73;4.03;;;17.10;99.90;;;;;;5082281;28;20604;-62
2023/08/04 05:50:29;;;;;;;9.73;4.10;;;17.20;99.90;;;;;;5084621;28;20316;-61
2023/08/04 05:52:56;;;;;;;6.23;3.67;;;17.30;99.90;;;;;;5075369;28;20226;-57
2023/08/04 05:55:22;;;;;;;12.33;3.80;;;17.30;99.90;;;;;;5066732;28;20194;-59
2023/08/04 05:57:47;;;;;;;11.47;4.23;;;17.30;99.90;;;;;;5087756;28;20813;-57
2023/08/04 06:00:13;;;;;;;4.70;3.27;;;17.30;99.90;;;;;;5088857;28;20268;-64
2023/08/04 06:02:39;;;;;;;14.37;4.80;;;17.10;99.90;;;;;;5085721;28;20319;-65
2023/08/04 06:05:05;;;;;;;6.37;3.67;;;17.10;99.90;;;;;;5084512;28;20687;-65
2023/08/04 06:07:30;;;;;;;12.03;4.50;;;17.10;99.90;;;;;;5080510;28;20262;-64
2023/08/04 06:09:55;;;;;;;8.73;3.83;;;17.10;99.90;;;;;;5083918;28;20648;-65
2023/08/04 06:12:21;;;;;;;6.70;3.77;;;17.10;99.90;;;;;;5081872;28;20208;-64
2023/08/04 06:14:47;;;;;;;8.70;4.07;;;17.20;99.90;;;;;;5084441;28;20272;-64
2023/08/04 06:17:12;;;;;;;7.50;3.93;;;17.30;99.90;;;;;;5062409;28;20770;-59
2023/08/04 06:19:43;;;;;;;4.80;3.23;;;17.30;99.90;;;;;;5069289;28;20285;-56
2023/08/04 06:22:09;;;;;;;7.37;4.20;;;17.40;99.90;;;;;;5090112;28;20225;-61
2023/08/04 06:24:35;;;;;;;8.80;3.97;;;17.40;99.90;;;;;;5090722;28;20196;-60
2023/08/04 06:27:02;;;;;;;8.40;4.30;;;17.30;99.90;;;;;;5064089;28;20185;-57
2023/08/04 06:29:27;;;;;;;9.07;4.63;;;17.40;99.90;;;;;;5081553;28;20196;-60
2023/08/04 06:31:53;;;;;;;5.07;3.43;;;17.40;99.90;;;;;;5072652;28;20626;-62
2023/08/04 06:34:18;;;;;;;4.47;3.10;;;17.40;99.90;;;;;;5065390;28;20221;-65
2023/08/04 06:36:47;;;;;;;9.30;3.40;;;17.60;99.90;;;;;;5090076;28;20189;-63
2023/08/04 06:39:13;;;;;;;8.77;5.43;;;17.50;99.90;;;;;;5079180;28;20181;-63
2023/08/04 06:41:39;;;;;;;4.73;3.93;;;17.50;99.90;;;;;;5063906;28;20189;-64
2023/08/04 06:44:05;;;;;;;6.47;3.90;;;17.50;99.90;;;;;;5075771;28;20705;-61
2023/08/04 06:46:30;;;;;;;12.43;3.37;;;17.50;99.90;;;;;;5063063;28;20193;-65
2023/08/04 06:48:56;;;;;;;9.27;3.53;;;17.60;99.90;;;;;;5080260;28;20189;-59
2023/08/04 06:51:21;;;;;;;4.77;3.33;;;17.70;99.90;;;;;;5083084;28;20221;-64
2023/08/04 06:53:47;;;;;;;3.97;3.27;;;17.70;99.90;;;;;;5081875;28;20332;-66
2023/08/04 06:56:12;;;;;;;6.93;3.13;;;17.70;99.90;;;;;;5083392;28;20202;-66
2023/08/04 06:58:38;;;;;;;7.33;3.37;;;17.70;99.90;;;;;;5077835;28;20202;-61
2023/08/04 07:01:03;;;;;;;8.10;3.47;;;17.80;99.90;;;;;;5063071;28;20205;-60
2023/08/04 07:03:29;;;;;;;6.33;4.17;;;17.90;99.90;;;;;;5080405;28;20235;-63
2023/08/04 07:05:54;;;;;;;9.30;3.53;;;17.90;99.90;;;;;;5056683;28;20193;-66
2023/08/04 07:08:20;;;;;;;6.63;2.77;;;17.90;99.90;;;;;;5080650;28;20724;-68
2023/08/04 07:10:45;;;;;;;6.57;3.10;;;17.90;99.90;;;;;;5060388;28;20222;-60
2023/08/04 07:13:11;;;;;;;4.53;2.60;;;18.00;99.90;;;;;;5077847;28;20259;-61
2023/08/04 07:15:36;;;;;;;7.23;3.17;;;18.10;99.90;;;;;;5078708;28;20202;-64
2023/08/04 07:18:02;;;;;;;7.63;3.30;;;18.20;99.90;;;;;;5074392;28;20213;-59
2023/08/04 07:20:28;;;;;;;7.00;3.13;;;18.30;99.90;;;;;;5082248;28;20712;-59
2023/08/04 07:22:54;;;;;;;10.70;3.57;;;18.30;99.90;;;;;;5074944;28;20224;-67
2023/08/04 07:25:20;;;;;;;7.93;3.47;;;18.10;99.90;;;;;;5073152;28;20206;-66
2023/08/04 07:27:45;;;;;;;6.20;3.13;;;18.00;99.90;;;;;;5077990;28;20209;-67
2023/08/04 07:30:11;;;;;;;5.80;3.10;;;18.10;99.90;;;;;;5082598;28;20185;-66
2023/08/04 07:32:37;;;;;;;7.23;2.80;;;18.20;99.90;;;;;;5062421;28;20200;-72
2023/08/04 07:35:02;;;;;;;5.97;3.73;;;18.20;99.90;;;;;;5064825;28;20186;-64
2023/08/04 07:37:29;;;;;;;5.97;3.13;;;18.10;99.90;;;;;;5080931;28;20196;-67
2023/08/04 07:39:54;;;;;;;6.23;3.50;;;18.20;99.90;;;;;;5082585;28;20184;-67
2023/08/04 07:42:20;;;;;;;7.47;3.43;;;18.30;99.90;;;;;;5080533;28;20866;-67
2023/08/04 07:44:45;;;;;;;15.00;3.17;;;18.30;99.90;;;;;;5062484;28;20272;-69
2023/08/04 07:47:10;;;;;;;4.77;2.90;;;18.50;99.90;;;;;;5074038;28;20210;-64
2023/08/04 07:49:36;;;;;;;6.73;3.33;;;18.60;99.90;;;;;;5060550;28;20602;-71
2023/08/04 07:52:01;;;;;;;6.60;3.70;;;18.60;99.90;;;;;;5077032;28;20195;-61
2023/08/04 07:54:27;;;;;;;4.67;3.00;;;18.70;99.90;;;;;;5085212;28;20296;-65
2023/08/04 07:56:52;;;;;;;6.10;2.57;;;18.90;99.90;;;;;;5065322;28;20202;-68
2023/08/04 07:59:18;;;;;;;5.43;2.80;;;19.00;99.90;;;;;;5072149;28;20181;-67
2023/08/04 08:01:43;;;;;;;7.23;2.50;;;18.90;99.90;;;;;;5084457;28;20197;-67
2023/08/04 08:04:09;;;;;;;6.50;3.53;;;18.90;99.90;;;;;;5094408;22;20267;-66
2023/08/04 08:06:36;;;;;;;4.03;2.40;;;18.90;99.90;;;;;;5086907;22;20241;-66
2023/08/04 08:09:01;;;;;;;6.27;2.60;;;19.00;99.90;;;;;;5067945;28;20202;-67
2023/08/04 08:11:27;;;;;;;7.27;2.90;;;19.10;99.90;;;;;;5100540;27;20259;-66
2023/08/04 08:13:52;;;;;;;6.30;3.03;;;19.10;99.90;;;;;;5095906;28;20217;-67
2023/08/04 08:16:18;;;;;;;3.80;2.67;;;19.00;99.90;;;;;;5099196;28;20192;-67
2023/08/04 08:18:43;;;;;;;3.63;2.43;;;19.00;99.90;;;;;;5087520;27;20766;-66
2023/08/04 08:21:10;;;;;;;5.63;2.30;;;19.00;99.90;;;;;;5111518;27;20270;-67
2023/08/04 08:23:36;;;;;;;7.60;3.00;;;19.00;99.90;;;;;;5089783;28;20208;-67
2023/08/04 08:26:05;;;;;;;3.03;2.40;;;19.10;99.90;;;;;;5111436;27;20312;-67
2023/08/04 08:28:31;;;;;;;8.07;3.13;;;19.10;99.90;;;;;;5101992;27;20201;-68
2023/08/04 08:30:56;;;;;;;3.30;3.00;;;19.20;99.90;;;;;;5114903;27;20180;-67
2023/08/04 08:33:22;;;;;;;4.50;3.00;;;19.20;99.90;;;;;;5113935;27;20268;-68
2023/08/04 08:35:48;;;;;;;3.90;2.50;;;19.30;99.90;;;;;;5104973;27;20189;-67
2023/08/04 08:38:13;;;;;;;6.13;2.57;;;19.40;99.90;;;;;;5081638;27;20212;-67
2023/08/04 08:40:39;;;;;;;3.40;2.17;;;19.50;99.90;;;;;;5104590;27;20290;-65
2023/08/04 08:43:04;;;;;;;3.57;2.00;;;19.50;99.90;;;;;;5102444;27;20666;-66
2023/08/04 08:45:32;;;;;;;3.97;2.43;;;19.50;99.90;;;;;;5103439;27;20243;-68
2023/08/04 08:47:57;;;;;;;5.10;2.60;;;19.50;99.90;;;;;;5102794;28;20185;-59
2023/08/04 08:50:27;;;;;;;7.07;2.87;;;19.50;99.90;;;;;;5094307;28;20255;-58
2023/08/04 08:53:13;;;;;;;9.30;3.20;;;19.60;99.90;;;;;;5084858;28;20710;-60
2023/08/04 08:55:40;;;;;;;4.53;2.90;;;19.40;99.90;;;;;;5101088;27;20205;-67
2023/08/04 08:58:07;;;;;;;2.73;2.47;;;19.40;99.90;;;;;;5099749;28;20201;-59
2023/08/04 09:00:34;;;;;;;4.17;2.53;;;19.50;99.90;;;;;;5088745;27;20502;-59
2023/08/04 09:03:00;;;;;;;3.37;2.53;;;19.60;99.90;;;;;;5109676;27;20199;-66
2023/08/04 09:05:26;;;;;;;4.10;2.60;;;19.70;99.90;;;;;;5100102;27;20227;-72
2023/08/04 09:07:51;;;;;;;4.23;2.77;;;19.70;99.90;;;;;;5091107;28;20223;-68
2023/08/04 09:10:17;;;;;;;3.57;2.20;;;19.70;99.90;;;;;;5085479;28;20203;-67
2023/08/04 09:12:48;;;;;;;7.63;2.47;;;19.90;99.90;;;;;;5086045;28;20214;-67
2023/08/04 09:15:13;;;;;;;5.93;2.83;;;19.80;99.90;;;;;;5065651;28;20673;-67
2023/08/04 09:17:40;;;;;;;3.37;2.20;;;19.80;99.90;;;;;;5086372;28;20228;-65
2023/08/04 09:20:08;;;;;;;3.60;2.37;;;19.80;99.90;;;;;;5057218;28;20202;-65
2023/08/04 09:22:39;;;;;;;3.33;2.00;;;19.90;99.90;;;;;;5084777;28;20178;-63
2023/08/04 09:25:05;;;;;;;6.57;2.60;;;19.80;99.90;;;;;;5083189;28;20256;-63
2023/08/04 09:27:37;;;;;;;3.80;2.27;;;19.80;99.90;;;;;;5086005;28;20186;-61
2023/08/04 09:30:05;;;;;;;4.63;2.80;;;19.80;99.90;;;;;;5085894;28;20196;-68
2023/08/04 09:32:39;;;;;;;3.57;3.00;;;19.80;99.90;;;;;;5065525;28;20177;-67
2023/08/04 09:35:06;;;;;;;5.27;3.20;;;19.90;99.90;;;;;;5064555;28;20197;-68
2023/08/04 09:37:33;;;;;;;2.63;2.20;;;20.10;99.90;;;;;;5085297;28;20168;-68
2023/08/04 09:40:04;;;;;;;2.67;2.47;;;20.20;99.90;;;;;;5084117;28;20671;-68
2023/08/04 09:42:30;;;;;;;2.93;2.30;;;20.60;99.90;;;;;;5087752;28;20210;-68
2023/08/04 09:44:56;;;;;;;4.80;3.30;;;20.60;99.90;;;;;;5106941;22;20250;-67
2023/08/04 09:47:23;;;;;;;6.73;2.60;;;20.50;99.90;;;;;;5105944;22;20239;-67
2023/08/04 09:49:53;;;;;;;7.47;2.60;;;20.80;99.90;;;;;;5081244;28;20995;-68
2023/08/04 09:52:30;;;;;;;6.37;2.37;;;20.70;99.90;;;;;;5080092;28;20210;-68
2023/08/04 09:54:56;;;;;;;6.60;2.60;;;20.80;99.90;;;;;;5072607;28;20199;-68
2023/08/04 09:57:22;;;;;;;6.50;2.63;;;20.80;99.90;;;;;;5068843;28;20872;-76
2023/08/04 09:59:51;;;;;;;5.93;2.40;;;20.70;99.90;;;;;;5061378;28;20455;-63
2023/08/04 10:02:19;;;;;;;7.27;3.60;;;20.50;99.90;;;;;;5081942;28;20604;-70
2023/08/04 10:04:49;;;;;;;4.03;2.67;;;20.50;99.90;;;;;;5087080;28;20257;-71
2023/08/04 10:07:16;;;;;;;4.57;2.20;;;20.30;99.90;;;;;;5096757;28;20194;-66
2023/08/04 10:09:43;;;;;;;10.23;7.10;;;20.00;99.90;;;;;;5092638;28;20198;-66
2023/08/04 10:12:10;;;;;;;5.60;2.67;;;19.90;99.90;;;;;;5080865;28;20204;-60
2023/08/04 10:14:35;;;;;;;4.70;2.87;;;19.90;99.90;;;;;;5075614;28;20230;-64
2023/08/04 10:17:02;;;;;;;4.13;2.30;;;20.00;99.90;;;;;;5081820;28;20195;-63
2023/08/04 10:19:28;;;;;;;6.23;2.97;;;20.10;99.90;;;;;;5079245;28;20206;-70
2023/08/04 10:21:53;;;;;;;17.57;8.20;;;19.90;99.90;;;;;;5065377;28;20187;-63
2023/08/04 10:24:22;;;;;;;3.07;2.57;;;19.70;99.90;;;;;;5077878;28;20875;-61
2023/08/04 10:26:52;;;;;;;7.30;2.53;;;20.00;99.90;;;;;;5080016;28;20751;-61
2023/08/04 10:29:19;;;;;;;8.37;2.57;;;20.20;99.90;;;;;;5079103;28;20195;-61
2023/08/04 10:31:56;;;;;;;6.60;3.00;;;20.20;99.90;;;;;;5082611;28;20194;-66
2023/08/04 10:34:29;;;;;;;4.97;2.30;;;20.30;99.90;;;;;;5062594;28;20742;-62
2023/08/04 10:36:57;;;;;;;3.07;2.77;;;20.50;99.90;;;;;;5074051;28;20194;-67
2023/08/04 10:39:34;;;;;;;7.00;2.87;;;20.50;99.90;;;;;;5069032;28;21174;-69
2023/08/04 10:42:03;;;;;;;3.13;2.33;;;20.60;99.90;;;;;;5075683;28;20213;-68
2023/08/04 10:44:48;;;;;;;2.93;2.40;;;20.80;99.90;;;;;;5097410;28;20254;-67
2023/08/04 10:47:14;;;;;;;2.47;1.83;;;20.80;99.90;;;;;;5082938;28;20222;-68
2023/08/04 10:49:40;;;;;;;6.27;3.20;;;20.90;99.90;;;;;;5097659;28;20822;-68
2023/08/04 10:52:06;;;;;;;3.07;2.23;;;20.90;99.90;;;;;;5098946;22;20251;-68
2023/08/04 10:54:31;;;;;;;3.07;2.50;;;20.50;99.90;;;;;;5049333;28;20219;-68
2023/08/04 10:56:57;;;;;;;6.03;2.17;;;20.20;99.90;;;;;;5068153;28;20206;-68
2023/08/04 10:59:22;;;;;;;5.17;2.37;;;20.00;99.90;;;;;;5061673;28;20772;-69
2023/08/04 11:01:48;;;;;;;3.07;2.20;;;20.10;99.90;;;;;;5063377;28;20198;-69
2023/08/04 11:04:15;;;;;;;3.73;2.73;;;20.00;99.90;;;;;;5061585;28;20560;-68
2023/08/04 11:06:41;;;;;;;6.87;4.00;;;20.40;99.90;;;;;;5060196;28;20551;-68
2023/08/04 11:09:08;;;;;;;3.47;2.67;;;20.50;99.90;;;;;;5049518;28;20219;-68
2023/08/04 11:11:34;;;;;;;3.33;2.57;;;20.70;99.90;;;;;;5058709;28;20194;-68
2023/08/04 11:14:03;;;;;;;2.83;2.00;;;20.80;99.90;;;;;;5037323;28;20273;-68
2023/08/04 11:16:32;;;;;;;2.77;1.63;;;20.80;99.90;;;;;;5062110;28;20178;-68
2023/08/04 11:18:58;;;;;;;4.73;2.60;;;21.00;99.90;;;;;;5060453;28;20300;-69
2023/08/04 11:21:23;;;;;;;3.77;2.70;;;21.00;99.90;;;;;;5076239;28;20710;-68
2023/08/04 11:23:49;;;;;;;3.67;1.53;;;21.20;99.90;;;;;;5080148;28;20208;-68
2023/08/04 11:26:15;;;;;;;3.83;2.43;;;21.20;99.90;;;;;;5080315;28;20693;-68
2023/08/04 11:28:40;;;;;;;2.30;1.80;;;21.70;99.90;;;;;;5078637;28;20760;-61
2023/08/04 11:31:07;;;;;;;2.87;2.60;;;21.80;99.90;;;;;;5075850;28;20187;-61
2023/08/04 11:33:33;;;;;;;3.70;2.43;;;22.00;99.90;;;;;;5071509;28;20323;-73
2023/08/04 11:36:02;;;;;;;3.83;2.07;;;21.90;99.90;;;;;;5077277;28;20214;-72
2023/08/04 11:38:27;;;;;;;4.80;1.83;;;22.40;99.90;;;;;;5055823;28;20915;-73
2023/08/04 11:40:55;;;;;;;3.60;2.07;;;22.60;99.90;;;;;;5075486;28;20198;-63
2023/08/04 11:43:21;;;;;;;2.50;2.30;;;22.30;99.90;;;;;;5075088;28;20213;-64
2023/08/04 11:45:48;;;;;;;7.43;2.43;;;22.50;99.90;;;;;;5073012;28;20511;-70
2023/08/04 11:48:14;;;;;;;2.57;1.80;;;22.40;99.90;;;;;;5071812;28;20215;-78
2023/08/04 11:50:39;;;;;;;4.63;2.63;;;22.30;99.90;;;;;;5075031;28;20224;-61
2023/08/04 11:53:05;;;;;;;4.77;2.57;;;22.20;99.90;;;;;;5079558;28;20216;-72
2023/08/04 11:55:33;;;;;;;4.43;2.53;;;22.30;99.90;;;;;;5077887;28;20190;-70
2023/08/04 11:57:59;;;;;;;4.47;2.37;;;22.40;99.90;;;;;;5070707;28;20845;-68
2023/08/04 12:00:34;;;;;;;4.40;2.30;;;22.20;99.90;;;;;;5063592;28;20187;-68
2023/08/04 12:03:02;;;;;;;3.97;2.00;;;21.80;99.90;;;;;;5076833;28;20208;-68
2023/08/04 12:05:32;;;;;;;2.57;2.07;;;21.50;99.90;;;;;;5063376;28;20189;-67
2023/08/04 12:07:59;;;;;;;4.07;2.33;;;21.40;99.90;;;;;;5071372;28;21016;-67
2023/08/04 12:10:25;;;;;;;2.93;2.20;;;21.40;99.90;;;;;;5076470;28;20181;-67
2023/08/04 12:12:51;;;;;;;3.23;2.20;;;21.50;99.90;;;;;;5071651;28;20213;-65
2023/08/04 12:15:17;;;;;;;6.50;3.00;;;21.50;99.90;;;;;;5077130;28;20892;-60
2023/08/04 12:17:43;;;;;;;4.37;2.70;;;21.50;99.90;;;;;;5068816;28;20219;-62
2023/08/04 12:20:11;;;;;;;4.83;2.33;;;21.90;99.90;;;;;;5078206;28;20255;-62
2023/08/04 12:22:38;;;;;;;3.83;2.50;;;22.10;99.90;;;;;;5069666;28;20850;-60
2023/08/04 12:25:05;;;;;;;3.37;2.10;;;22.20;99.90;;;;;;5076753;28;20184;-70
2023/08/04 12:27:30;;;;;;;4.53;2.57;;;22.30;99.90;;;;;;5073488;28;20201;-60
2023/08/04 12:29:56;;;;;;;3.43;2.40;;;22.20;99.90;;;;;;5079870;28;20196;-72
2023/08/04 12:32:22;;;;;;;5.70;3.00;;;22.20;99.90;;;;;;5073740;28;20195;-60
2023/08/04 12:34:47;;;;;;;2.43;2.20;;;22.20;99.90;;;;;;5055948;28;20217;-66
2023/08/04 12:37:13;;;;;;;3.57;2.57;;;21.90;99.90;;;;;;5077307;28;20193;-63
2023/08/04 12:39:38;;;;;;;5.53;3.37;;;21.90;99.90;;;;;;5072231;28;20278;-60
2023/08/04 12:42:04;;;;;;;4.97;2.47;;;22.00;99.90;;;;;;5056476;28;20217;-69